Flight Track Log - Related Links

Times and Time Zones

All times are in EDT time to prevent confusion due to time zone crossing. See the N521LL flight status page for this flight to view local times or setup timezone preferences in your user account.


Time Position Orientation Groundspeed Altitude Reporting Facility
EDT Latitude Longitude Course Direction KTS MPH feet Rate Location/Type
Mon 06:39:27 PM 30.5900 -98.4417 342° North 274 315 7,100  Level Houston Center
Mon 06:40:28 PM 30.6108 -98.5256 286° West 284 327 8,900 1,805 Climbing Houston Center
Mon 06:41:30 PM 30.6086 -98.6136 268° West 273 314 10,800 2,274 Climbing Houston Center
Mon 06:42:32 PM 30.6189 -98.6994 278° West 271 312 13,600 2,323 Climbing Houston Center
Mon 06:43:34 PM 30.6781 -98.7622 318° Northwest 285 328 15,600 2,081 Climbing Houston Center
Mon 06:44:36 PM 30.7431 -98.8225 321° Northwest 294 338 17,900 2,129 Climbing Houston Center
Mon 06:45:38 PM 30.8078 -98.8900 318° Northwest 306 352 20,000 2,129 Climbing Houston Center
Mon 06:46:40 PM 30.8883 -98.9664 321° Northwest 316 364 22,300 1,951 Climbing Houston Center
Mon 06:47:41 PM 30.9572 -99.0350 320° Northwest 322 371 24,000 1,659 Climbing Houston Center
Mon 06:48:43 PM 31.0275 -99.1067 319° Northwest 329 379 25,700 968 Climbing Houston Center
Mon 06:49:45 PM 31.0931 -99.1706 320° Northwest 341 392 26,000 145 Climbing Houston Center
Mon 06:50:47 PM 31.1900 -99.2667 320° Northwest 378 435 26,000 871 Level Houston Center
Mon 06:51:49 PM 31.2708 -99.3458 320° Northwest 380 437 27,800 968 Climbing Houston Center
Mon 06:52:51 PM 31.3442 -99.4225 318° Northwest 372 428 28,000 97 Climbing Houston Center
Mon 06:53:53 PM 31.4381 -99.4928 327° Northwest 398 458 28,000  Level Houston Center
Mon 06:54:54 PM 31.5442 -99.5403 339° North 399 459 28,000  Level Houston Center
Mon 06:55:56 PM 31.6486 -99.5972 335° Northwest 412 474 28,000  Level Houston Center
Mon 06:56:58 PM 31.7756 -99.6608 337° Northwest 412 474 28,000  Level Houston Center
Mon 06:58:00 PM 31.8781 -99.7169 335° Northwest 410 472 28,000  Level Houston Center
Mon 06:59:07 PM 31.9969 -99.7772 337° Northwest 407 468 28,000  Level Fort Worth Center
Mon 07:00:07 PM 32.1003 -99.8314 336° Northwest 407 468 28,000  Level Fort Worth Center
Mon 07:01:07 PM 32.2036 -99.8858 336° Northwest 407 468 28,000  Level Fort Worth Center
Mon 07:02:07 PM 32.3069 -99.9403 336° Northwest 407 468 28,000  Level Fort Worth Center
Mon 07:03:07 PM 32.4081 -99.9947 336° Northwest 400 460 28,000  Level Fort Worth Center
Mon 07:04:07 PM 32.5092 -100.0494 335° Northwest 400 460 28,000  Level Fort Worth Center
Mon 07:05:07 PM 32.6122 -100.1067 335° Northwest 400 460 28,000  Level Fort Worth Center
Mon 07:06:07 PM 32.7178 -100.1592 337° Northwest 400 460 28,000  Level Fort Worth Center
Mon 07:07:07 PM 32.8003 -100.2011 337° Northwest 400 460 28,000  Level Fort Worth Center
Mon 07:08:07 PM 32.9136 -100.2617 336° Northwest 400 460 28,000  Level Fort Worth Center
Mon 07:09:07 PM 33.0147 -100.3144 336° Northwest 395 455 28,000  Level Fort Worth Center
Mon 07:10:07 PM 33.1178 -100.3675 337° Northwest 395 455 28,000  Level Fort Worth Center
Mon 07:11:07 PM 33.2169 -100.4203 336° Northwest 395 455 28,000  Level Fort Worth Center
Mon 07:12:07 PM 33.3219 -100.4786 335° Northwest 395 455 28,000  Level Fort Worth Center
Mon 07:13:07 PM 33.3928 -100.5681 313° West 381 438 28,000 -800 Level Fort Worth Center
Mon 07:14:07 PM 33.4208 -100.6886 286° West 355 409 26,400 -1,979 Descending Fort Worth Center
Mon 07:14:44 PM 33.4372 -100.7764 283° West 365 420 24,800 -2,100 Descending Fort Worth Center
Mon 07:15:07 PM 33.4469 -100.8067 291° West 360 414 24,300 -2,333 Descending Fort Worth Center
Mon 07:15:38 PM 33.4614 -100.8844 283° West 361 415 22,700 -2,300 Descending Fort Worth Center
Mon 07:16:07 PM 33.4711 -100.9172 290° West 360 414 22,000 -2,291 Descending Fort Worth Center
Mon 07:16:33 PM 33.4819 -100.9722 283° West 335 386 20,600 -2,600 Descending Fort Worth Center
Mon 07:17:07 PM 33.4969 -101.0328 287° West 342 394 19,400 -2,361 Descending Fort Worth Center
Mon 07:17:34 PM 33.5019 -101.0803 277° West 321 369 18,200 -2,700 Descending Fort Worth Center
Mon 07:18:07 PM 33.5211 -101.1358 292° West 322 371 16,700 -2,455 Descending Fort Worth Center
Mon 07:18:40 PM 33.5297 -101.1986 279° West 322 371 15,500 -2,200 Descending Fort Worth Center
Mon 07:19:07 PM 33.5431 -101.2414 291° West 322 371 14,500 -2,400 Descending Fort Worth Center
Mon 07:19:35 PM 33.5497 -101.2942 279° West 319 367 13,300 -2,600 Descending Fort Worth Center
Mon 07:20:07 PM 33.5797 -101.3353 311° West 317 365 11,900 -2,400 Descending Fort Worth Center
Mon 07:20:35 PM 33.5950 -101.3833 291° West 316 364 10,900 -2,100 Descending Fort Worth Center
Mon 07:21:07 PM 33.6183 -101.4292 301° West 317 365 9,800 -2,182 Descending Fort Worth Center
Mon 07:21:30 PM 33.6319 -101.4672 293° West 308 354 8,900 -1,900 Descending Fort Worth Center
Mon 07:22:07 PM 33.6553 -101.5133 301° West 300 345 7,900 -1,180 Descending Fort Worth Center
Mon 07:22:31 PM 33.6689 -101.5439 298° West 255 293 7,700 -700 Descending Fort Worth Center
Mon 07:23:07 PM 33.6906 -101.5872 301° West 273 314 7,200 -700 Descending Fort Worth Center
Mon 07:23:31 PM 33.7039 -101.6206 296° West 252 290 7,000 -800 Descending Fort Worth Center
Mon 07:24:07 PM 33.7253 -101.6664 299° West 266 306 6,400 -984 Descending Fort Worth Center
Mon 07:24:32 PM 33.7306 -101.6992 281° West 266 306 6,000 -1,300 Descending Fort Worth Center
Mon 07:25:07 PM 33.7350 -101.7492 276° West 256 295 5,100 -1,091 Descending Fort Worth Center
Mon 07:25:38 PM 33.7314 -101.7942 265° West 231 266 4,800 -700 Descending Fort Worth Center
Mon 07:26:07 PM 33.7325 -101.8192 273° West 229 264 4,400 -787 Descending Fort Worth Center
Mon 07:26:39 PM 33.7114 -101.8331 209° Southwest 151 174 4,000 -900 Descending Fort Worth Center
Mon 07:27:07 PM 33.6967 -101.8322 177° South 144 166 3,500 -545 Descending Fort Worth Center
Mon 07:28:07 PM 33.6675 -101.8283 174° South 126 145 3,200 -150 Descending Fort Worth Center
Mon 07:29:07 PM 33.6592 -101.8328 204° Southwest 65 75 3,200  Level Fort Worth Center

Login

Don't have an account? Register now (free) for customized features, flight alerts, and more!